createdAt,value
2023-01-10T00:00:37.727Z,65.62
2023-01-10T00:03:07.747Z,65.47
2023-01-10T00:05:35.942Z,65.67
2023-01-10T00:08:03.667Z,65.40
2023-01-10T00:10:31.733Z,65.50
2023-01-10T00:13:17.102Z,65.40
2023-01-10T00:15:44.443Z,65.23
2023-01-10T00:18:11.751Z,65.46
2023-01-10T00:20:38.564Z,65.55
2023-01-10T00:23:05.670Z,65.49
2023-01-10T00:25:34.336Z,65.46
2023-01-10T00:28:20.231Z,65.34
2023-01-10T00:30:55.187Z,65.26
2023-01-10T00:33:22.687Z,64.96
2023-01-10T00:35:49.655Z,64.90
2023-01-10T00:38:16.934Z,64.94
2023-01-10T00:40:43.701Z,64.94
2023-01-10T00:43:29.316Z,64.81
2023-01-10T00:45:57.512Z,64.95
2023-01-10T00:48:24.745Z,64.96
2023-01-10T00:50:51.519Z,64.94
2023-01-10T00:53:18.163Z,64.73
2023-01-10T00:55:45.308Z,64.69
2023-01-10T00:58:14.206Z,64.60
2023-01-10T01:00:41.974Z,64.77
2023-01-10T01:03:09.051Z,64.79
2023-01-10T01:05:43.350Z,64.79
2023-01-10T01:08:11.822Z,64.87
2023-01-10T01:10:38.519Z,64.74
2023-01-10T01:13:10.258Z,64.62
2023-01-10T01:15:37.292Z,64.73
2023-01-10T01:18:05.187Z,65.15
2023-01-10T01:20:32.720Z,64.52
2023-01-10T01:23:00.790Z,64.51
2023-01-10T01:25:27.465Z,64.57
2023-01-10T01:27:54.299Z,64.59
2023-01-10T01:30:21.344Z,64.52
2023-01-10T01:32:48.085Z,64.40
2023-01-10T01:35:16.495Z,64.52
2023-01-10T01:37:44.288Z,64.53
2023-01-10T01:40:14.848Z,64.54
2023-01-10T01:42:43.916Z,64.57
2023-01-10T01:45:22.779Z,64.63
2023-01-10T01:47:58.351Z,64.69
2023-01-10T01:50:37.684Z,64.70
2023-01-10T01:53:11.889Z,64.69
2023-01-10T01:55:39.915Z,64.46
2023-01-10T01:58:10.967Z,64.19
2023-01-10T02:00:37.619Z,64.29
2023-01-10T02:03:06.007Z,64.38
2023-01-10T02:05:35.450Z,64.42
2023-01-10T02:08:02.592Z,64.52
2023-01-10T02:10:41.201Z,64.51
2023-01-10T02:13:11.374Z,64.58
2023-01-10T02:15:38.176Z,64.49
2023-01-10T02:18:05.312Z,64.46
2023-01-10T02:20:48.038Z,64.53
2023-01-10T02:23:29.738Z,64.66
2023-01-10T02:26:11.693Z,64.75
2023-01-10T02:29:13.555Z,64.90
2023-01-10T02:32:05.499Z,64.94
2023-01-10T02:34:51.374Z,64.93
2023-01-10T02:37:49.347Z,64.77
2023-01-10T02:40:41.283Z,64.85
2023-01-10T02:43:13.461Z,64.65
2023-01-10T02:45:47.283Z,64.67
2023-01-10T02:48:17.510Z,64.79
2023-01-10T02:50:47.321Z,64.86
2023-01-10T02:53:24.918Z,64.96
2023-01-10T02:56:18.607Z,65.11
2023-01-10T02:59:10.311Z,65.16
2023-01-10T03:01:58.183Z,65.18
2023-01-10T03:04:37.305Z,65.26
2023-01-10T03:07:19.984Z,65.38
2023-01-10T03:09:55.853Z,65.48
2023-01-10T03:12:32.245Z,65.53
2023-01-10T03:15:00.690Z,65.62
2023-01-10T03:17:30.602Z,65.65
2023-01-10T03:20:02.617Z,65.76
2023-01-10T03:22:31.927Z,65.84
2023-01-10T03:25:01.384Z,65.97
2023-01-10T03:27:52.069Z,65.89
2023-01-10T03:30:44.821Z,65.99
2023-01-10T03:33:12.725Z,66.05
2023-01-10T03:35:51.100Z,66.12
2023-01-10T03:38:50.221Z,66.11
2023-01-10T03:41:42.547Z,66.20
2023-01-10T03:44:43.190Z,66.32
2023-01-10T03:47:24.381Z,66.45
2023-01-10T03:49:56.454Z,66.57
2023-01-10T03:52:25.229Z,66.71
2023-01-10T03:54:52.076Z,66.79
2023-01-10T03:57:22.924Z,66.92
2023-01-10T03:59:58.344Z,66.99
2023-01-10T04:02:30.665Z,67.05
2023-01-10T04:04:59.087Z,67.20
2023-01-10T04:07:26.792Z,67.34
2023-01-10T04:09:54.378Z,67.44
2023-01-10T04:12:21.407Z,67.52
2023-01-10T04:14:48.260Z,67.61
2023-01-10T04:17:16.569Z,67.69
2023-01-10T04:19:43.839Z,67.82
2023-01-10T04:22:11.651Z,67.89
2023-01-10T04:24:39.128Z,68.00
2023-01-10T04:27:06.632Z,68.07
2023-01-10T04:29:33.400Z,68.14
2023-01-10T04:32:01.081Z,68.20
2023-01-10T04:34:29.204Z,68.25
2023-01-10T04:36:55.885Z,68.26
2023-01-10T04:39:22.497Z,68.30
2023-01-10T04:41:49.902Z,68.26
2023-01-10T04:44:16.749Z,68.22
2023-01-10T04:46:43.397Z,68.27
2023-01-10T04:49:10.650Z,68.23
2023-01-10T04:51:37.454Z,68.24
2023-01-10T04:54:04.233Z,68.32
2023-01-10T04:56:31.171Z,68.41
2023-01-10T04:58:57.875Z,68.52
2023-01-10T05:01:25.752Z,68.58
2023-01-10T05:03:55.151Z,68.63
2023-01-10T05:06:23.455Z,68.73
2023-01-10T05:08:50.209Z,68.83
2023-01-10T05:11:17.179Z,68.92
2023-01-10T05:13:44.005Z,69.02
2023-01-10T05:16:10.735Z,69.08
2023-01-10T05:18:37.758Z,69.13
2023-01-10T05:21:07.764Z,69.22
2023-01-10T05:23:34.430Z,69.27
2023-01-10T05:26:16.061Z,69.37
2023-01-10T05:28:43.358Z,69.41
2023-01-10T05:31:13.309Z,69.51
2023-01-10T05:33:43.498Z,69.57
2023-01-10T05:36:10.489Z,69.67
2023-01-10T05:38:37.259Z,69.72
2023-01-10T05:41:04.011Z,69.80
2023-01-10T05:43:30.985Z,69.94
2023-01-10T05:45:57.871Z,70.06
2023-01-10T05:48:24.550Z,70.17
2023-01-10T05:50:52.865Z,70.29
2023-01-10T05:53:20.117Z,70.40
2023-01-10T05:55:58.217Z,70.49
2023-01-10T05:58:25.983Z,70.54
2023-01-10T06:00:54.515Z,70.68
2023-01-10T06:03:21.850Z,70.75
2023-01-10T06:05:49.162Z,70.87
2023-01-10T06:08:16.362Z,70.99
2023-01-10T06:10:43.869Z,71.05
2023-01-10T06:13:12.162Z,71.14
2023-01-10T06:15:39.127Z,71.22
2023-01-10T06:18:12.125Z,71.28
2023-01-10T06:20:39.711Z,71.36
2023-01-10T06:23:06.926Z,71.39
2023-01-10T06:25:36.961Z,71.47
2023-01-10T06:28:04.255Z,71.47
2023-01-10T06:30:31.220Z,71.51
2023-01-10T06:33:05.515Z,71.43
2023-01-10T06:35:32.621Z,71.40
2023-01-10T06:37:59.550Z,71.44
2023-01-10T06:40:26.894Z,71.42
2023-01-10T06:42:53.914Z,71.42
2023-01-10T06:45:20.963Z,71.46
2023-01-10T06:47:47.634Z,71.52
2023-01-10T06:50:14.558Z,71.57
2023-01-10T06:52:42.060Z,71.66
2023-01-10T06:55:08.808Z,71.67
2023-01-10T06:57:35.730Z,71.67
2023-01-10T07:00:04.834Z,71.68
2023-01-10T07:02:31.709Z,71.67
2023-01-10T07:04:58.594Z,71.65
2023-01-10T07:07:25.252Z,71.62
2023-01-10T07:09:51.896Z,71.58
2023-01-10T07:12:18.896Z,71.62
2023-01-10T07:14:45.557Z,71.66
2023-01-10T07:17:12.172Z,71.64
2023-01-10T07:19:39.054Z,71.64
2023-01-10T07:22:05.873Z,71.62
2023-01-10T07:24:32.486Z,71.58
2023-01-10T07:26:59.362Z,71.62
2023-01-10T07:29:25.984Z,71.59
2023-01-10T07:31:52.639Z,71.63
2023-01-10T07:34:19.603Z,71.58
2023-01-10T07:36:46.261Z,71.45
2023-01-10T07:39:12.949Z,71.48
2023-01-10T07:41:40.083Z,71.49
2023-01-10T07:44:06.869Z,71.47
2023-01-10T07:46:33.584Z,71.45
2023-01-10T07:49:00.643Z,71.49
2023-01-10T07:51:27.322Z,71.43
2023-01-10T07:53:53.930Z,71.40
2023-01-10T07:56:21.068Z,71.30
2023-01-10T07:58:47.714Z,71.24
2023-01-10T08:01:14.573Z,71.18
2023-01-10T08:03:41.577Z,71.23
2023-01-10T08:06:13.149Z,71.30
2023-01-10T08:08:40.466Z,71.32
2023-01-10T08:11:07.883Z,71.27
2023-01-10T08:13:34.654Z,71.19
2023-01-10T08:16:06.056Z,71.16
2023-01-10T08:18:33.574Z,71.18
2023-01-10T08:21:00.949Z,71.16
2023-01-10T08:23:28.053Z,71.19
2023-01-10T08:25:58.969Z,71.21
2023-01-10T08:28:25.626Z,71.25
2023-01-10T08:30:55.774Z,71.19
2023-01-10T08:33:23.950Z,71.06
2023-01-10T08:35:51.593Z,70.99
2023-01-10T08:38:18.510Z,70.93
2023-01-10T08:40:45.558Z,70.82
2023-01-10T08:43:13.054Z,70.79
2023-01-10T08:45:39.863Z,70.73
2023-01-10T08:48:09.322Z,70.58
2023-01-10T08:50:36.187Z,70.50
2023-01-10T08:53:03.082Z,70.38
2023-01-10T08:55:31.223Z,70.38
2023-01-10T08:58:01.676Z,70.13
2023-01-10T09:00:28.983Z,70.06
2023-01-10T09:02:56.051Z,70.10
2023-01-10T09:05:27.495Z,70.15
2023-01-10T09:08:03.736Z,69.95
2023-01-10T09:10:30.887Z,70.20
2023-01-10T09:13:01.367Z,69.80
2023-01-10T09:15:36.282Z,69.62
2023-01-10T09:18:05.893Z,69.34
2023-01-10T09:20:34.928Z,69.07
2023-01-10T09:23:17.537Z,69.01
2023-01-10T09:25:45.349Z,69.12
2023-01-10T09:28:12.061Z,69.01
2023-01-10T09:30:38.823Z,69.04
2023-01-10T09:33:06.863Z,68.92
2023-01-10T09:35:36.639Z,68.95
2023-01-10T09:38:04.923Z,68.91
2023-01-10T09:40:51.015Z,68.82
2023-01-10T09:43:44.454Z,68.73
2023-01-10T09:46:28.291Z,68.70
2023-01-10T09:49:08.961Z,68.66
2023-01-10T09:51:45.126Z,68.37
2023-01-10T09:54:20.489Z,68.43
2023-01-10T09:56:47.810Z,68.31
2023-01-10T09:59:24.804Z,68.13
2023-01-10T10:02:17.491Z,68.29
2023-01-10T10:04:57.768Z,68.20
2023-01-10T10:07:24.677Z,68.03
2023-01-10T10:09:51.595Z,67.67
2023-01-10T10:12:47.346Z,67.67
2023-01-10T10:15:46.230Z,67.62
2023-01-10T10:18:29.701Z,67.64
2023-01-10T10:21:18.076Z,67.52
2023-01-10T10:24:09.574Z,67.38
2023-01-10T13:41:35.667Z,67.29
2023-01-10T13:44:15.159Z,66.06
2023-01-10T13:46:47.630Z,65.18
2023-01-10T13:49:14.605Z,64.82
2023-01-10T13:52:39.846Z,64.61
2023-01-10T13:55:22.178Z,64.54
2023-01-10T13:57:54.989Z,64.25
2023-01-10T14:01:05.720Z,63.82
2023-01-10T14:03:52.900Z,63.68
2023-01-10T14:06:28.784Z,63.52
2023-01-10T14:09:14.638Z,63.26
2023-01-10T14:11:54.480Z,63.42
2023-01-10T14:14:29.063Z,63.29
2023-01-10T14:17:12.693Z,63.09
2023-01-10T14:19:41.141Z,62.84
2023-01-10T14:22:24.767Z,62.54
2023-01-10T14:24:53.878Z,62.67
2023-01-10T14:27:22.742Z,62.08
2023-01-10T14:30:01.993Z,61.96
2023-01-10T14:32:38.325Z,62.05
2023-01-10T14:35:08.329Z,61.55
2023-01-10T14:37:44.231Z,61.23
2023-01-10T14:40:43.243Z,61.47
2023-01-10T14:43:15.925Z,61.55
2023-01-10T14:46:01.224Z,61.13
2023-01-10T14:48:32.584Z,60.93
2023-01-10T14:51:21.746Z,60.79
2023-01-10T14:53:57.499Z,61.16
2023-01-10T14:56:28.206Z,60.49
2023-01-10T14:58:55.274Z,60.31
2023-01-10T15:01:30.492Z,60.27
2023-01-10T15:03:57.651Z,60.54
2023-01-10T15:06:26.064Z,59.83
2023-01-10T15:08:58.453Z,59.87
2023-01-10T15:11:27.571Z,59.86
2023-01-10T15:14:00.130Z,59.10
2023-01-10T15:16:28.725Z,59.28
2023-01-10T15:18:56.706Z,59.48
2023-01-10T15:21:24.445Z,59.57
2023-01-10T15:23:51.758Z,59.61
2023-01-10T15:26:29.128Z,59.67
2023-01-10T15:29:23.477Z,59.46
2023-01-10T15:31:52.201Z,59.55
2023-01-10T15:34:22.653Z,59.33
2023-01-10T15:36:53.727Z,59.15
2023-01-10T15:39:24.015Z,59.16
2023-01-10T15:41:57.983Z,59.06
2023-01-10T15:44:45.074Z,59.14
2023-01-10T15:47:41.370Z,59.45
2023-01-10T15:50:29.672Z,59.27
2023-01-10T15:53:02.315Z,59.25
2023-01-10T15:55:36.042Z,59.13
2023-01-10T15:58:03.170Z,59.01
2023-01-10T16:00:30.431Z,58.96
2023-01-10T16:02:57.904Z,58.82
2023-01-10T16:05:24.734Z,58.71
2023-01-10T16:07:51.711Z,58.66
2023-01-10T16:10:24.497Z,58.39
2023-01-10T16:13:10.000Z,58.47
2023-01-10T16:15:40.829Z,58.46
2023-01-10T16:18:07.811Z,58.41
2023-01-10T16:20:41.401Z,58.13
2023-01-10T16:23:16.148Z,58.23
2023-01-10T16:25:47.088Z,58.26
2023-01-10T16:28:16.595Z,57.95
2023-01-10T16:30:46.807Z,57.68
2023-01-10T16:33:19.341Z,57.87
2023-01-10T16:35:48.049Z,57.85
2023-01-10T16:38:15.833Z,57.56
2023-01-10T16:40:46.807Z,57.39
2023-01-10T16:43:21.842Z,57.42
2023-01-10T16:45:52.067Z,57.42
2023-01-10T16:48:20.856Z,57.22
2023-01-10T16:50:48.805Z,57.14
2023-01-10T16:53:18.377Z,57.24
2023-01-10T16:55:53.039Z,57.11
2023-01-10T16:58:21.028Z,57.03
2023-01-10T17:00:50.286Z,56.70
2023-01-10T17:03:20.395Z,56.57
2023-01-10T17:05:47.194Z,56.74
2023-01-10T17:08:20.534Z,56.91
2023-01-10T17:10:51.010Z,56.69
2023-01-10T17:13:27.245Z,56.81
2023-01-10T17:15:53.978Z,56.71
2023-01-10T17:18:20.991Z,56.41
2023-01-10T17:20:47.633Z,56.40
2023-01-10T17:23:15.708Z,56.64
2023-01-10T17:25:42.973Z,56.47
2023-01-10T17:28:12.142Z,56.27
2023-01-10T17:30:40.384Z,56.39
2023-01-10T17:33:10.983Z,56.68
2023-01-10T17:35:41.609Z,56.45
2023-01-10T17:38:13.984Z,56.42
2023-01-10T17:40:44.463Z,56.60
2023-01-10T17:43:12.414Z,57.12
2023-01-10T17:45:43.218Z,56.57
2023-01-10T17:48:13.057Z,56.57
2023-01-10T17:50:40.321Z,56.55
2023-01-10T17:53:06.939Z,56.78
2023-01-10T17:55:33.662Z,56.68
2023-01-10T17:58:02.796Z,56.84
2023-01-10T18:00:30.412Z,57.09
2023-01-10T18:02:57.494Z,57.36
2023-01-10T18:05:24.152Z,57.45
2023-01-10T18:07:50.792Z,57.69
2023-01-10T18:10:18.205Z,57.81
2023-01-10T18:12:45.608Z,57.98
2023-01-10T18:15:12.251Z,58.24
2023-01-10T18:17:39.331Z,58.51
2023-01-10T18:20:06.913Z,58.77
2023-01-10T18:22:52.022Z,59.08
2023-01-10T18:25:19.395Z,59.35
2023-01-10T18:27:50.297Z,59.73
2023-01-10T18:30:22.200Z,60.12
2023-01-10T18:32:49.885Z,60.41
2023-01-10T18:35:16.691Z,60.21
2023-01-10T18:37:43.536Z,61.17
2023-01-10T18:40:11.596Z,61.63
2023-01-10T18:42:38.496Z,62.20
2023-01-10T18:45:06.467Z,62.51
2023-01-10T18:47:33.883Z,62.81
2023-01-10T18:50:00.600Z,63.36
2023-01-10T18:52:27.456Z,63.57
2023-01-10T18:54:54.469Z,63.78
2023-01-10T18:57:21.118Z,64.12
2023-01-10T18:59:47.788Z,64.40
2023-01-10T19:02:15.645Z,64.94
2023-01-10T19:04:42.634Z,65.35
2023-01-10T19:07:09.435Z,65.62
2023-01-10T19:09:36.455Z,65.96
2023-01-10T19:12:03.307Z,66.13
2023-01-10T19:14:29.992Z,66.73
2023-01-10T19:16:56.940Z,67.15
2023-01-10T19:19:23.746Z,67.53
2023-01-10T19:21:50.444Z,67.62
2023-01-10T19:24:27.541Z,67.92
2023-01-10T19:26:55.333Z,68.10
2023-01-10T19:29:23.228Z,68.42
2023-01-10T19:31:50.229Z,68.59
2023-01-10T19:34:17.554Z,68.88
2023-01-10T19:36:45.547Z,69.04
2023-01-10T19:39:13.149Z,69.20
2023-01-10T19:41:41.025Z,69.49
2023-01-10T19:44:12.397Z,69.83
2023-01-10T19:46:40.604Z,69.87
2023-01-10T19:49:13.268Z,69.95
2023-01-10T19:51:41.160Z,70.19
2023-01-10T19:54:08.727Z,70.28
2023-01-10T19:56:35.850Z,70.38
2023-01-10T19:59:03.448Z,70.49
2023-01-10T20:01:31.597Z,70.66
2023-01-10T20:04:03.395Z,70.81
2023-01-10T20:06:32.616Z,71.10
2023-01-10T20:08:59.574Z,71.23
2023-01-10T20:11:36.729Z,71.42
2023-01-10T20:14:05.758Z,71.54
2023-01-10T20:16:32.502Z,71.65
2023-01-10T20:18:59.253Z,71.84
2023-01-10T20:21:26.251Z,72.05
2023-01-10T20:23:52.948Z,72.20
2023-01-10T20:26:22.625Z,72.39
2023-01-10T20:28:50.638Z,72.60
2023-01-10T20:31:21.253Z,72.85
2023-01-10T20:33:48.692Z,73.02
2023-01-10T20:36:18.205Z,73.15
2023-01-10T20:38:45.089Z,73.34
2023-01-10T20:41:20.754Z,73.39
2023-01-10T20:43:47.931Z,73.51
2023-01-10T20:46:28.685Z,73.66
2023-01-10T20:48:56.971Z,73.65
2023-01-10T20:51:27.264Z,73.90
2023-01-10T20:53:54.122Z,74.02
2023-01-10T20:56:23.367Z,74.13
2023-01-10T20:58:51.186Z,74.29
2023-01-10T21:01:28.628Z,74.44
2023-01-10T21:04:00.327Z,74.65
2023-01-10T21:06:27.212Z,74.73
2023-01-10T21:08:54.017Z,74.88
2023-01-10T21:11:21.124Z,75.07
2023-01-10T21:13:48.274Z,75.22
2023-01-10T21:16:18.251Z,75.30
2023-01-10T21:18:45.756Z,75.42
2023-01-10T21:21:15.316Z,75.57
2023-01-10T21:23:42.577Z,75.62
2023-01-10T21:26:12.447Z,75.70
2023-01-10T21:28:42.458Z,75.77
2023-01-10T21:31:10.707Z,75.86
2023-01-10T21:33:37.508Z,75.92
2023-01-10T21:36:05.079Z,76.03
2023-01-10T21:38:33.138Z,76.14
2023-01-10T21:41:14.074Z,76.24
2023-01-10T21:43:45.303Z,76.25
2023-01-10T21:46:12.409Z,76.34
2023-01-10T21:48:39.276Z,76.45
2023-01-10T21:51:06.331Z,76.54
2023-01-10T21:53:33.030Z,76.64
2023-01-10T21:56:00.021Z,76.72
2023-01-10T21:58:27.524Z,76.80
2023-01-10T22:00:56.877Z,76.85
2023-01-10T22:03:24.089Z,76.90
2023-01-10T22:05:51.015Z,76.93
2023-01-10T22:08:17.701Z,76.94
2023-01-10T22:10:44.656Z,76.95
2023-01-10T22:13:11.386Z,76.95
2023-01-10T22:15:38.048Z,76.99
2023-01-10T22:18:05.077Z,77.01
2023-01-10T22:20:31.814Z,77.03
2023-01-10T22:22:58.568Z,77.04
2023-01-10T22:25:25.830Z,77.05
2023-01-10T22:27:53.430Z,77.07
2023-01-10T22:30:20.108Z,77.10
2023-01-10T22:32:47.054Z,77.13
2023-01-10T22:35:14.731Z,77.15
2023-01-10T22:37:41.512Z,77.14
2023-01-10T22:40:09.397Z,77.12
2023-01-10T22:42:36.051Z,77.10
2023-01-10T22:45:02.775Z,77.08
2023-01-10T22:47:29.735Z,77.01
2023-01-10T22:49:56.629Z,77.00
2023-01-10T22:52:23.464Z,77.00
2023-01-10T22:54:50.427Z,76.95
2023-01-10T22:57:17.032Z,76.85
2023-01-10T22:59:43.679Z,76.79
2023-01-10T23:02:10.672Z,76.74
2023-01-10T23:04:37.445Z,76.65
2023-01-10T23:07:04.081Z,76.58
2023-01-10T23:09:30.997Z,76.48
2023-01-10T23:11:57.682Z,76.41
2023-01-10T23:14:24.314Z,76.33
2023-01-10T23:16:51.283Z,76.17
2023-01-10T23:19:17.991Z,76.05
2023-01-10T23:21:44.611Z,75.98
2023-01-10T23:24:13.874Z,75.92
2023-01-10T23:26:40.636Z,75.80
2023-01-10T23:29:07.439Z,75.71
2023-01-10T23:31:34.488Z,75.69
2023-01-10T23:34:01.206Z,75.75
2023-01-10T23:36:27.799Z,75.83
2023-01-10T23:38:55.186Z,75.90
2023-01-10T23:41:22.322Z,75.97
2023-01-10T23:43:49.726Z,76.03
2023-01-10T23:46:16.798Z,76.05
2023-01-10T23:48:46.077Z,76.08
2023-01-10T23:51:13.713Z,76.10
2023-01-10T23:53:41.022Z,76.08
2023-01-10T23:56:14.111Z,75.98
2023-01-10T23:58:41.565Z,75.89
